createdAt,value
2023-07-19T00:00:40.342Z,63.79
2023-07-19T00:03:06.833Z,63.28
2023-07-19T00:05:33.253Z,63.91
2023-07-19T00:08:00.039Z,63.82
2023-07-19T00:10:26.425Z,64.07
2023-07-19T00:12:56.601Z,64.26
2023-07-19T00:15:24.464Z,64.50
2023-07-19T00:20:17.302Z,64.42
2023-07-19T00:22:43.705Z,64.61
2023-07-19T00:25:10.230Z,64.60
2023-07-19T00:27:36.655Z,64.64
2023-07-19T00:30:03.210Z,64.51
2023-07-19T00:32:29.637Z,64.57
2023-07-19T00:34:56.036Z,64.98
2023-07-19T00:37:22.786Z,64.37
2023-07-19T00:39:49.834Z,64.51
2023-07-19T00:42:16.192Z,65.15
2023-07-19T00:44:43.266Z,65.39
2023-07-19T00:47:09.654Z,65.48
2023-07-19T00:49:36.409Z,65.69
2023-07-19T00:52:03.740Z,65.93
2023-07-19T00:54:31.394Z,65.87
2023-07-19T00:56:59.090Z,65.35
2023-07-19T00:59:27.544Z,65.38
2023-07-19T01:01:54.140Z,65.26
2023-07-19T01:04:20.559Z,65.27
2023-07-19T01:06:47.120Z,64.93
2023-07-19T01:09:14.695Z,65.42
2023-07-19T01:11:42.167Z,65.25
2023-07-19T01:14:09.238Z,64.91
2023-07-19T01:16:37.020Z,65.32
2023-07-19T01:19:04.325Z,64.92
2023-07-19T01:21:31.129Z,65.38
2023-07-19T01:23:57.671Z,65.06
2023-07-19T01:26:24.128Z,65.44
2023-07-19T01:28:50.494Z,65.74
2023-07-19T01:31:17.293Z,65.49
2023-07-19T01:33:44.295Z,65.81
2023-07-19T01:36:10.680Z,65.78
2023-07-19T01:38:37.151Z,65.54
2023-07-19T01:41:03.579Z,65.37
2023-07-19T01:43:30.401Z,65.59
2023-07-19T01:45:59.224Z,66.03
2023-07-19T01:48:26.048Z,65.80
2023-07-19T01:50:52.439Z,65.55
2023-07-19T01:53:19.340Z,65.98
2023-07-19T01:55:45.730Z,65.64
2023-07-19T01:58:12.636Z,66.27
2023-07-19T02:00:39.296Z,66.19
2023-07-19T02:03:05.823Z,65.77
2023-07-19T02:05:32.287Z,66.00
2023-07-19T02:07:58.667Z,66.60
2023-07-19T02:10:25.341Z,66.00
2023-07-19T02:12:51.758Z,66.14
2023-07-19T02:15:18.191Z,66.42
2023-07-19T02:17:44.611Z,67.26
2023-07-19T02:20:13.196Z,66.85
2023-07-19T02:22:40.523Z,66.96
2023-07-19T02:25:07.194Z,66.72
2023-07-19T02:27:33.582Z,66.71
2023-07-19T02:30:00.314Z,66.87
2023-07-19T02:32:26.732Z,67.60
2023-07-19T02:34:53.126Z,67.70
2023-07-19T02:37:19.524Z,67.62
2023-07-19T02:39:45.930Z,68.31
2023-07-19T02:42:12.416Z,69.24
2023-07-19T02:44:38.789Z,68.89
2023-07-19T02:47:05.628Z,69.45
2023-07-19T02:49:32.048Z,68.60
2023-07-19T02:51:58.427Z,69.19
2023-07-19T02:54:24.834Z,68.71
2023-07-19T02:56:51.201Z,68.36
2023-07-19T02:59:17.651Z,68.74
2023-07-19T03:01:44.143Z,68.60
2023-07-19T03:04:13.754Z,68.45
2023-07-19T03:06:40.548Z,68.55
2023-07-19T03:09:07.350Z,68.46
2023-07-19T03:11:33.806Z,68.42
2023-07-19T03:14:00.212Z,68.96
2023-07-19T03:16:26.676Z,68.08
2023-07-19T03:18:53.119Z,68.02
2023-07-19T03:21:21.525Z,67.59
2023-07-19T03:23:48.462Z,67.92
2023-07-19T03:26:14.853Z,68.45
2023-07-19T03:28:41.434Z,67.84
2023-07-19T03:31:12.498Z,67.96
2023-07-19T03:33:40.081Z,68.36
2023-07-19T03:36:06.551Z,68.39
2023-07-19T03:38:33.230Z,68.52
2023-07-19T03:41:07.559Z,68.15
2023-07-19T03:43:34.064Z,67.95
2023-07-19T03:46:00.543Z,67.98
2023-07-19T03:48:26.977Z,67.02
2023-07-19T03:51:01.365Z,66.82
2023-07-19T03:53:29.154Z,67.07
2023-07-19T03:55:57.049Z,66.82
2023-07-19T03:58:27.044Z,67.25
2023-07-19T04:00:58.483Z,67.08
2023-07-19T04:03:26.071Z,67.13
2023-07-19T04:05:54.264Z,67.71
2023-07-19T04:08:21.255Z,67.67
2023-07-19T04:10:48.042Z,68.00
2023-07-19T04:13:14.813Z,68.26
2023-07-19T04:15:41.469Z,68.34
2023-07-19T04:18:07.985Z,68.85
2023-07-19T04:20:34.677Z,68.65
2023-07-19T04:23:01.146Z,68.69
2023-07-19T04:25:27.603Z,69.08
2023-07-19T04:27:54.900Z,68.83
2023-07-19T04:30:21.284Z,68.75
2023-07-19T04:32:47.972Z,68.42
2023-07-19T04:35:14.404Z,68.44
2023-07-19T04:37:41.408Z,68.98
2023-07-19T04:40:11.678Z,68.55
2023-07-19T04:42:38.086Z,68.75
2023-07-19T04:45:04.877Z,68.60
2023-07-19T04:47:31.277Z,68.67
2023-07-19T04:49:57.675Z,68.15
2023-07-19T04:52:24.079Z,68.31
2023-07-19T04:54:50.521Z,68.28
2023-07-19T04:57:17.123Z,68.03
2023-07-19T04:59:43.754Z,67.38
2023-07-19T05:02:10.186Z,67.13
2023-07-19T05:04:36.633Z,67.01
2023-07-19T05:07:03.063Z,67.29
2023-07-19T05:09:29.456Z,67.06
2023-07-19T05:11:55.823Z,67.09
2023-07-19T05:14:22.217Z,67.63
2023-07-19T05:16:48.781Z,68.30
2023-07-19T05:19:15.255Z,68.73
2023-07-19T05:21:41.700Z,68.24
2023-07-19T05:24:08.132Z,68.81
2023-07-19T05:26:34.608Z,68.63
2023-07-19T05:29:01.022Z,68.23
2023-07-19T05:31:27.602Z,68.73
2023-07-19T05:33:54.018Z,68.97
2023-07-19T05:36:20.504Z,68.58
2023-07-19T05:38:46.922Z,68.45
2023-07-19T05:41:13.336Z,68.60
2023-07-19T05:43:39.717Z,67.77
2023-07-19T05:46:10.118Z,67.97
2023-07-19T05:48:37.136Z,68.09
2023-07-19T05:51:05.953Z,68.58
2023-07-19T05:53:32.703Z,68.92
2023-07-19T05:55:59.098Z,68.08
2023-07-19T05:58:25.899Z,67.92
2023-07-19T06:00:52.391Z,67.78
2023-07-19T06:03:19.808Z,67.43
2023-07-19T06:05:47.055Z,68.12
2023-07-19T06:08:24.593Z,68.31
2023-07-19T06:10:52.365Z,67.99
2023-07-19T06:13:18.761Z,67.63
2023-07-19T06:15:45.277Z,67.91
2023-07-19T06:18:11.723Z,67.40
2023-07-19T06:20:38.607Z,67.40
2023-07-19T06:23:05.160Z,68.25
2023-07-19T06:25:32.338Z,67.53
2023-07-19T06:27:58.762Z,68.03
2023-07-19T06:30:25.234Z,68.85
2023-07-19T06:32:51.758Z,67.22
2023-07-19T06:35:18.290Z,67.57
2023-07-19T06:37:44.783Z,66.84
2023-07-19T06:40:11.523Z,66.54
2023-07-19T06:42:38.069Z,65.84
2023-07-19T06:45:04.864Z,65.11
2023-07-19T06:47:31.340Z,64.70
2023-07-19T06:49:58.472Z,64.51
2023-07-19T06:52:27.161Z,64.12
2023-07-19T06:54:55.469Z,63.82
2023-07-19T06:57:22.410Z,64.11
2023-07-19T06:59:50.789Z,61.84
2023-07-19T07:02:20.334Z,62.24
2023-07-19T07:04:47.461Z,61.92
2023-07-19T07:07:16.152Z,62.75
2023-07-19T07:09:43.394Z,62.71
2023-07-19T07:12:11.864Z,62.88
2023-07-19T07:14:39.040Z,62.32
2023-07-19T07:17:09.393Z,61.90
2023-07-19T07:19:36.234Z,61.38
2023-07-19T07:22:02.826Z,60.68
2023-07-19T07:24:29.208Z,60.17
2023-07-19T07:26:55.776Z,59.07
2023-07-19T07:29:22.179Z,58.77
2023-07-19T07:31:48.574Z,58.91
2023-07-19T07:34:15.253Z,58.75
2023-07-19T07:36:42.159Z,58.96
2023-07-19T07:39:08.574Z,58.40
2023-07-19T07:41:35.536Z,57.93
2023-07-19T07:44:01.965Z,58.11
2023-07-19T07:46:30.471Z,58.46
2023-07-19T07:49:00.464Z,58.10
2023-07-19T07:51:30.475Z,57.78
2023-07-19T07:53:57.053Z,56.86
2023-07-19T07:56:25.032Z,56.48
2023-07-19T07:58:51.528Z,56.71
2023-07-19T08:01:17.995Z,56.21
2023-07-19T08:03:44.634Z,55.69
2023-07-19T08:06:11.057Z,55.76
2023-07-19T08:08:37.495Z,54.80
2023-07-19T08:11:06.239Z,55.14
2023-07-19T08:13:32.698Z,55.20
2023-07-19T08:15:59.137Z,54.58
2023-07-19T08:18:25.789Z,54.16
2023-07-19T08:20:53.150Z,52.14
2023-07-19T08:23:20.464Z,52.81
2023-07-19T08:25:47.030Z,53.40
2023-07-19T08:28:13.493Z,51.98
2023-07-19T08:30:40.123Z,51.58
2023-07-19T08:33:09.664Z,52.09
2023-07-19T08:35:36.317Z,51.77
2023-07-19T08:38:02.781Z,50.95
2023-07-19T08:40:32.817Z,50.99
2023-07-19T08:42:59.302Z,51.11
2023-07-19T08:45:26.908Z,51.13
2023-07-19T08:47:53.609Z,51.82
2023-07-19T08:50:21.881Z,52.24
2023-07-19T08:52:48.394Z,51.99
2023-07-19T08:55:14.831Z,50.67
2023-07-19T08:57:44.292Z,50.27
2023-07-19T09:00:11.318Z,50.54
2023-07-19T09:02:37.833Z,50.59
2023-07-19T09:05:05.810Z,50.03
2023-07-19T09:07:33.050Z,50.26
2023-07-19T09:09:59.482Z,49.93
2023-07-19T09:12:26.582Z,50.12
2023-07-19T09:14:52.980Z,50.32
2023-07-19T09:17:21.432Z,50.75
2023-07-19T09:19:48.246Z,50.29
2023-07-19T09:22:17.499Z,51.00
2023-07-19T09:25:02.332Z,50.53
2023-07-19T09:27:29.245Z,50.33
2023-07-19T09:29:55.654Z,50.32
2023-07-19T09:32:24.100Z,50.25
2023-07-19T09:34:55.237Z,49.50
2023-07-19T09:37:26.179Z,48.98
2023-07-19T09:39:55.744Z,49.00
2023-07-19T09:42:22.259Z,48.23
2023-07-19T09:44:49.896Z,48.05
2023-07-19T09:47:28.047Z,48.49
2023-07-19T09:49:56.189Z,49.21
2023-07-19T09:52:25.797Z,48.75
2023-07-19T09:54:54.541Z,48.12
2023-07-19T09:57:24.389Z,47.77
2023-07-19T09:59:52.501Z,47.64
2023-07-19T10:02:19.374Z,47.42
2023-07-19T10:04:48.675Z,46.67
2023-07-19T10:07:20.443Z,46.38
2023-07-19T10:09:50.950Z,45.45
2023-07-19T10:12:17.380Z,45.71
2023-07-19T10:14:54.113Z,46.75
2023-07-19T10:17:21.877Z,47.47
2023-07-19T10:19:58.190Z,45.96
2023-07-19T10:22:47.674Z,46.92
2023-07-19T10:25:23.380Z,46.89
2023-07-19T10:27:58.225Z,46.31
2023-07-19T10:30:43.767Z,46.70
2023-07-19T10:33:10.295Z,46.20
2023-07-19T10:35:36.922Z,45.30
2023-07-19T10:38:04.400Z,46.24
2023-07-19T10:40:32.464Z,45.52
2023-07-19T10:42:58.970Z,44.57
2023-07-19T10:45:26.970Z,44.39
2023-07-19T10:47:53.575Z,44.16
2023-07-19T10:50:25.287Z,44.55
2023-07-19T10:52:52.197Z,43.82
2023-07-19T10:55:42.788Z,43.90
2023-07-19T10:58:06.739Z,43.78
2023-07-19T11:00:36.425Z,43.27
2023-07-19T11:03:03.017Z,42.59
2023-07-19T11:05:29.536Z,43.02
2023-07-19T11:07:55.965Z,43.18
2023-07-19T11:10:22.775Z,43.23
2023-07-19T11:12:49.295Z,43.04
2023-07-19T11:15:15.743Z,43.47
2023-07-19T11:17:42.269Z,43.51
2023-07-19T11:20:09.583Z,42.52
2023-07-19T11:22:36.122Z,42.57
2023-07-19T11:25:10.931Z,41.40
2023-07-19T11:27:38.025Z,41.13
2023-07-19T11:30:05.440Z,40.20
2023-07-19T11:32:31.963Z,39.87
2023-07-19T11:34:59.560Z,38.59
2023-07-19T11:37:31.628Z,39.08
2023-07-19T11:39:59.621Z,39.04
2023-07-19T11:42:42.719Z,39.47
2023-07-19T11:45:20.742Z,39.97
2023-07-19T11:47:51.392Z,39.40
2023-07-19T11:50:17.836Z,39.21
2023-07-19T11:53:03.152Z,38.50
2023-07-19T11:55:30.733Z,37.94
2023-07-19T11:58:04.069Z,38.12
2023-07-19T12:00:33.321Z,37.81
2023-07-19T12:03:00.078Z,38.45
2023-07-19T12:05:27.436Z,37.88
2023-07-19T12:07:53.921Z,37.64
2023-07-19T12:10:21.822Z,38.33
2023-07-19T12:12:52.248Z,37.94
2023-07-19T12:15:19.534Z,38.30
2023-07-19T12:17:46.121Z,38.90
2023-07-19T12:20:13.084Z,38.62
2023-07-19T12:22:41.782Z,38.27
2023-07-19T12:25:08.924Z,37.82
2023-07-19T12:27:36.172Z,38.79
2023-07-19T12:30:04.678Z,39.01
2023-07-19T12:32:35.720Z,37.07
2023-07-19T12:35:02.842Z,38.17
2023-07-19T12:37:29.367Z,37.97
2023-07-19T12:39:55.806Z,37.22
2023-07-19T12:42:22.305Z,37.43
2023-07-19T12:44:48.749Z,37.96
2023-07-19T12:47:16.602Z,37.25
2023-07-19T12:49:42.996Z,37.37
2023-07-19T12:52:12.409Z,37.45
2023-07-19T12:54:39.375Z,35.92
2023-07-19T12:57:07.225Z,36.30
2023-07-19T12:59:33.742Z,36.53
2023-07-19T13:02:00.597Z,36.54
2023-07-19T13:04:27.210Z,36.72
2023-07-19T13:06:58.317Z,36.23
2023-07-19T13:09:24.936Z,36.68
2023-07-19T13:11:51.338Z,36.70
2023-07-19T13:14:17.964Z,36.38
2023-07-19T13:16:44.547Z,36.33
2023-07-19T13:19:11.146Z,36.20
2023-07-19T13:21:37.790Z,36.65
2023-07-19T13:24:04.780Z,36.21
2023-07-19T13:26:31.516Z,36.43
2023-07-19T13:28:58.264Z,36.65
2023-07-19T13:31:25.982Z,35.81
2023-07-19T13:33:52.478Z,35.25
2023-07-19T13:38:48.539Z,34.81
2023-07-19T13:41:14.933Z,35.40
2023-07-19T13:43:42.099Z,34.92
2023-07-19T13:46:08.658Z,35.02
2023-07-19T13:48:35.155Z,34.31
2023-07-19T13:51:04.198Z,34.65
2023-07-19T13:53:31.185Z,35.81
2023-07-19T13:55:57.608Z,34.96
2023-07-19T13:58:24.036Z,34.68
2023-07-19T14:00:51.245Z,35.49
2023-07-19T14:03:18.367Z,35.20
2023-07-19T14:05:45.486Z,35.57
2023-07-19T14:08:11.882Z,35.43
2023-07-19T14:10:38.382Z,35.63
2023-07-19T14:13:04.968Z,34.58
2023-07-19T14:15:31.367Z,34.58
2023-07-19T14:17:58.002Z,34.60
2023-07-19T14:20:25.040Z,34.84
2023-07-19T14:22:51.596Z,34.41
2023-07-19T14:25:17.992Z,35.39
2023-07-19T14:27:44.427Z,35.12
2023-07-19T14:30:11.094Z,34.23
2023-07-19T14:32:38.773Z,34.46
2023-07-19T14:35:06.155Z,34.25
2023-07-19T14:37:32.665Z,35.23
2023-07-19T14:39:59.453Z,34.79
2023-07-19T14:42:27.420Z,34.88
2023-07-19T14:44:53.950Z,35.23
2023-07-19T14:47:20.597Z,35.02
2023-07-19T14:49:47.017Z,35.16
2023-07-19T14:52:13.519Z,34.69
2023-07-19T14:54:41.436Z,34.64
2023-07-19T14:57:08.116Z,34.30
2023-07-19T14:59:34.576Z,34.23
2023-07-19T15:02:01.645Z,33.65
2023-07-19T15:04:28.453Z,33.20
2023-07-19T15:06:55.032Z,32.94
2023-07-19T15:09:21.498Z,32.76
2023-07-19T15:11:49.057Z,33.08
2023-07-19T15:14:16.114Z,33.70
2023-07-19T15:16:42.584Z,33.99
2023-07-19T15:19:09.434Z,33.42
2023-07-19T15:21:35.965Z,33.23
2023-07-19T15:24:02.465Z,33.69
2023-07-19T15:26:34.577Z,33.52
2023-07-19T15:29:02.239Z,33.19
2023-07-19T15:31:29.677Z,32.83
2023-07-19T15:33:56.156Z,33.47
2023-07-19T15:36:23.962Z,33.15
2023-07-19T15:38:55.720Z,32.90
2023-07-19T15:41:24.183Z,32.47
2023-07-19T15:43:51.074Z,32.44
2023-07-19T15:46:17.624Z,32.40
2023-07-19T15:48:44.097Z,32.38
2023-07-19T15:51:11.719Z,31.78
2023-07-19T15:53:38.297Z,32.71
2023-07-19T15:56:08.964Z,32.40
2023-07-19T15:58:35.586Z,32.76
2023-07-19T16:01:05.373Z,33.58
2023-07-19T16:03:32.525Z,33.92
2023-07-19T16:05:59.008Z,33.60
2023-07-19T16:08:25.432Z,33.82
2023-07-19T16:10:52.470Z,33.25
2023-07-19T16:13:18.860Z,33.31
2023-07-19T16:15:45.578Z,33.03
2023-07-19T16:18:12.178Z,32.91
2023-07-19T16:20:38.688Z,33.26
2023-07-19T16:23:05.229Z,33.68
2023-07-19T16:25:31.930Z,33.70
2023-07-19T16:27:58.327Z,33.44
2023-07-19T16:30:24.832Z,33.47
2023-07-19T16:32:51.289Z,33.40
2023-07-19T16:35:18.046Z,34.42
2023-07-19T16:37:44.634Z,34.62
2023-07-19T16:40:11.409Z,34.41
2023-07-19T16:42:37.793Z,34.30
2023-07-19T16:45:07.810Z,34.07
2023-07-19T16:47:36.065Z,33.31
2023-07-19T16:50:03.532Z,33.73
2023-07-19T16:52:30.392Z,33.71
2023-07-19T16:54:56.913Z,34.27
2023-07-19T16:57:23.357Z,34.67
2023-07-19T16:59:56.707Z,34.79
2023-07-19T17:02:33.491Z,33.63
2023-07-19T17:05:00.076Z,34.05
2023-07-19T17:07:27.096Z,33.30
2023-07-19T17:09:54.738Z,33.58
2023-07-19T17:12:21.593Z,34.28
2023-07-19T17:14:47.998Z,33.99
2023-07-19T17:17:14.509Z,34.69
2023-07-19T17:19:42.432Z,35.18
2023-07-19T17:22:09.542Z,34.83
2023-07-19T17:24:36.077Z,33.85
2023-07-19T17:27:02.598Z,34.40
2023-07-19T17:29:29.024Z,35.39
2023-07-19T17:31:55.540Z,34.97
2023-07-19T17:34:21.997Z,35.03
2023-07-19T17:36:48.537Z,36.19
2023-07-19T17:39:14.941Z,36.17
2023-07-19T17:41:41.356Z,35.76
2023-07-19T17:44:08.351Z,36.93
2023-07-19T17:46:40.862Z,35.95
2023-07-19T17:49:07.492Z,36.65
2023-07-19T17:51:34.124Z,36.29
2023-07-19T17:54:00.892Z,37.53
2023-07-19T17:56:27.350Z,37.01
2023-07-19T17:58:53.816Z,36.73
2023-07-19T18:01:22.300Z,37.12
2023-07-19T18:03:49.711Z,37.98
2023-07-19T18:06:16.496Z,38.18
2023-07-19T18:08:42.942Z,38.79
2023-07-19T18:11:09.411Z,39.25
2023-07-19T18:13:36.136Z,40.49
2023-07-19T18:16:02.691Z,40.18
2023-07-19T18:18:29.579Z,40.12
2023-07-19T18:20:56.010Z,39.62
2023-07-19T18:23:22.474Z,39.26
2023-07-19T18:25:48.896Z,39.07
2023-07-19T18:28:16.121Z,39.48
2023-07-19T18:30:43.394Z,40.07
2023-07-19T18:33:12.638Z,39.88
2023-07-19T18:35:40.662Z,40.14
2023-07-19T18:38:07.293Z,39.92
2023-07-19T18:40:33.728Z,40.09
2023-07-19T18:43:00.233Z,40.71
2023-07-19T18:45:26.627Z,40.68
2023-07-19T18:47:53.158Z,40.83
2023-07-19T18:50:19.652Z,41.17
2023-07-19T18:52:47.515Z,40.88
2023-07-19T18:55:13.986Z,41.17
2023-07-19T18:57:40.429Z,41.92
2023-07-19T19:00:08.288Z,41.74
2023-07-19T19:02:36.062Z,41.91
2023-07-19T19:05:03.245Z,42.05
2023-07-19T19:07:29.658Z,42.91
2023-07-19T19:09:56.147Z,41.99
2023-07-19T19:12:22.605Z,41.99
2023-07-19T19:14:49.018Z,42.58
2023-07-19T19:17:15.476Z,42.44
2023-07-19T19:19:41.900Z,42.95
2023-07-19T19:22:08.383Z,42.41
2023-07-19T19:24:34.904Z,42.60
2023-07-19T19:27:01.983Z,42.59
2023-07-19T19:29:28.605Z,42.62
2023-07-19T19:31:55.356Z,42.45
2023-07-19T19:34:21.848Z,42.47
2023-07-19T19:36:48.240Z,42.04
2023-07-19T19:39:27.761Z,42.03
2023-07-19T19:41:55.925Z,42.42
2023-07-19T19:44:22.384Z,43.01
2023-07-19T19:46:48.825Z,42.59
2023-07-19T19:49:15.207Z,42.31
2023-07-19T19:51:42.667Z,42.62
2023-07-19T19:54:10.268Z,42.55
2023-07-19T19:56:36.680Z,42.52
2023-07-19T19:59:03.093Z,42.63
2023-07-19T20:01:33.238Z,43.01
2023-07-19T20:06:29.890Z,42.91
2023-07-19T20:09:02.304Z,43.40
2023-07-19T20:11:29.303Z,42.80
2023-07-19T20:13:55.806Z,43.12
2023-07-19T20:16:22.810Z,42.70
2023-07-19T20:18:49.314Z,42.50
2023-07-19T20:21:16.513Z,43.23
2023-07-19T20:23:43.177Z,42.92
2023-07-19T20:26:14.146Z,42.45
2023-07-19T20:28:41.570Z,43.09
2023-07-19T20:31:08.044Z,42.83
2023-07-19T20:33:35.397Z,42.85
2023-07-19T20:43:30.552Z,43.24
2023-07-19T20:45:59.391Z,43.66
2023-07-19T20:48:26.129Z,43.71
2023-07-19T20:50:53.294Z,43.80
2023-07-19T20:53:19.720Z,43.62
2023-07-19T20:55:46.247Z,43.45
2023-07-19T20:58:12.664Z,43.02
2023-07-19T21:00:39.178Z,43.38
2023-07-19T21:03:05.891Z,43.29
2023-07-19T21:05:33.856Z,43.71
2023-07-19T21:08:00.389Z,43.82
2023-07-19T21:10:27.365Z,43.73
2023-07-19T21:12:54.539Z,43.98
2023-07-19T21:15:21.026Z,44.36
2023-07-19T21:17:47.578Z,44.03
2023-07-19T21:20:14.100Z,44.18
2023-07-19T21:22:40.870Z,43.72
2023-07-19T21:25:15.686Z,44.64
2023-07-19T21:27:42.721Z,44.42
2023-07-19T21:30:10.852Z,44.50
2023-07-19T21:32:37.350Z,44.29
2023-07-19T21:35:04.024Z,44.12
2023-07-19T21:37:30.411Z,44.23
2023-07-19T21:39:56.850Z,43.91
2023-07-19T21:42:23.449Z,44.46
2023-07-19T21:44:50.342Z,44.22
2023-07-19T21:47:16.918Z,44.57
2023-07-19T21:49:43.782Z,45.04
2023-07-19T21:52:11.071Z,45.64
2023-07-19T21:54:37.928Z,45.69
2023-07-19T21:57:04.403Z,44.95
2023-07-19T21:59:30.828Z,45.91
2023-07-19T22:01:57.196Z,45.12
2023-07-19T22:04:23.953Z,45.12
2023-07-19T22:06:50.382Z,45.59
2023-07-19T22:09:16.855Z,44.89
2023-07-19T22:11:43.752Z,46.07
2023-07-19T22:14:11.700Z,46.59
2023-07-19T22:16:39.324Z,46.94
2023-07-19T22:19:06.099Z,47.08
2023-07-19T22:21:32.515Z,47.40
2023-07-19T22:23:58.923Z,47.40
2023-07-19T22:26:25.756Z,47.37
2023-07-19T22:29:02.509Z,47.39
2023-07-19T22:31:29.246Z,47.48
2023-07-19T22:33:55.774Z,47.25
2023-07-19T22:36:22.666Z,47.23
2023-07-19T22:38:49.424Z,47.42
2023-07-19T22:41:18.661Z,47.51
2023-07-19T22:43:45.096Z,47.75
2023-07-19T22:46:11.945Z,48.29
2023-07-19T22:48:39.533Z,48.04
2023-07-19T22:51:06.110Z,47.33
2023-07-19T22:53:35.401Z,48.33
2023-07-19T22:56:02.827Z,48.07
2023-07-19T22:58:30.832Z,48.20
2023-07-19T23:00:58.450Z,48.84
2023-07-19T23:03:25.260Z,48.97
2023-07-19T23:05:52.864Z,48.74
2023-07-19T23:08:20.141Z,49.68
2023-07-19T23:10:47.476Z,49.37
2023-07-19T23:13:14.276Z,50.05
2023-07-19T23:15:40.760Z,49.28
2023-07-19T23:18:07.208Z,48.71
2023-07-19T23:20:33.896Z,49.17
2023-07-19T23:23:00.904Z,50.07
2023-07-19T23:25:27.501Z,49.45
2023-07-19T23:27:55.562Z,50.19
2023-07-19T23:30:22.016Z,50.09
2023-07-19T23:32:51.646Z,49.04
2023-07-19T23:35:18.184Z,49.55
2023-07-19T23:37:44.574Z,49.80
2023-07-19T23:40:11.458Z,49.61
2023-07-19T23:42:37.862Z,50.58
2023-07-19T23:45:06.824Z,49.74
2023-07-19T23:47:33.348Z,50.27
2023-07-19T23:49:59.736Z,50.12
2023-07-19T23:52:26.492Z,50.05
2023-07-19T23:54:53.056Z,50.49
2023-07-19T23:57:19.464Z,49.76
2023-07-19T23:59:45.969Z,49.54
